Time,TemperatureF,DewpointF,PressureIn,WindDirection,WindDirectionDegrees,WindSpeedMPH,WindSpeedGustMPH,Humidity,HourlyPrecipIn,Conditions,Clouds,dailyrainin,SoftwareType,DateUTC
2013-01-02 08:49:00,46.6,11.8,30.04,NNW,337,19.7,-999.0,24,-99.99,,,0.00,Acu-Link.com,2013-01-02 15:49:00,
2013-01-02 09:04:00,48.7,11.6,30.05,NW,315,16.1,-999.0,22,-99.99,,,0.00,Acu-Link.com,2013-01-02 16:04:00,
2013-01-02 09:20:00,49.3,9.9,30.04,NNW,337,14.5,-999.0,20,-99.99,,,0.00,Acu-Link.com,2013-01-02 16:20:00,
2013-01-02 09:35:00,50.2,7.1,30.04,NNW,337,18.1,-999.0,17,-99.99,,,0.00,Acu-Link.com,2013-01-02 16:35:00,
2013-01-02 09:50:00,51.8,7.1,30.05,NNW,337,16.1,-999.0,16,-99.99,,,0.00,Acu-Link.com,2013-01-02 16:50:00,
2013-01-02 12:10:00,57.7,-9.1,30.01,NNE,22,19.0,-999.0,6,-99.99,,,0.00,Acu-Link.com,2013-01-02 19:10:00,
2013-01-02 12:26:00,57.6,-6.0,29.99,NW,315,23.3,-999.0,7,-99.99,,,0.00,Acu-Link.com,2013-01-02 19:26:00,
2013-01-02 12:41:00,58.6,-5.2,29.98,NNW,337,18.1,-999.0,7,-99.99,,,0.00,Acu-Link.com,2013-01-02 19:41:00,
2013-01-02 12:56:00,59.7,-7.6,29.98,NNW,337,21.3,-999.0,6,-99.99,,,0.00,Acu-Link.com,2013-01-02 19:56:00,
2013-01-02 14:36:00,62.1,-19.7,29.93,North,0,19.0,-999.0,3,-99.99,,,0.00,Acu-Link.com,2013-01-02 21:36:00,
2013-01-02 14:53:00,61.3,-20.2,29.93,NE,45,16.6,-999.0,3,-99.99,,,0.00,Acu-Link.com,2013-01-02 21:53:00,
2013-01-02 15:08:00,61.5,-20.0,29.93,ESE,112,13.4,-999.0,3,-99.99,,,0.00,Acu-Link.com,2013-01-02 22:08:00,
2013-01-02 15:23:00,61.7,-27.5,29.92,NNW,337,11.4,-999.0,2,-99.99,,,0.00,Acu-Link.com,2013-01-02 22:23:00,
2013-01-02 15:38:00,61.7,-27.5,29.92,NNW,337,15.4,-999.0,2,-99.99,,,0.00,Acu-Link.com,2013-01-02 22:38:00,
2013-01-02 15:54:00,61.3,-27.8,29.93,North,0,15.4,-999.0,2,-99.99,,,0.00,Acu-Link.com,2013-01-02 22:54:00,
2013-01-02 16:09:00,62.2,-27.2,29.92,NNW,337,13.4,-999.0,2,-99.99,,,0.00,Acu-Link.com,2013-01-02 23:09:00,
2013-01-02 16:24:00,61.5,-27.6,29.92,NNW,337,16.1,-999.0,2,-99.99,,,0.00,Acu-Link.com,2013-01-02 23:24:00,
2013-01-02 16:39:00,61.3,-20.2,29.92,NNW,337,16.1,-999.0,3,-99.99,,,0.00,Acu-Link.com,2013-01-02 23:39:00,
2013-01-02 16:55:00,60.6,-20.7,29.92,NW,315,15.4,-999.0,3,-99.99,,,0.00,Acu-Link.com,2013-01-02 23:55:00,
2013-01-02 17:10:00,59.7,-15.7,29.92,NNW,337,14.5,-999.0,4,-99.99,,,0.00,Acu-Link.com,2013-01-03 00:10:00,
2013-01-02 17:25:00,59.0,-16.2,29.92,NNW,337,11.9,-999.0,4,-99.99,,,0.00,Acu-Link.com,2013-01-03 00:25:00,
2013-01-02 17:40:00,57.4,-6.2,29.93,NNW,337,11.4,-999.0,7,-99.99,,,0.00,Acu-Link.com,2013-01-03 00:40:00,
2013-01-02 17:55:00,56.5,-4.1,29.93,NNW,337,11.0,-999.0,8,-99.99,,,0.00,Acu-Link.com,2013-01-03 00:55:00,
2013-01-02 18:10:00,55.9,-2.0,29.93,North,0,8.3,-999.0,9,-99.99,,,0.00,Acu-Link.com,2013-01-03 01:10:00,
2013-01-02 18:25:00,55.2,-0.4,29.93,NNW,337,8.9,-999.0,10,-99.99,,,0.00,Acu-Link.com,2013-01-03 01:25:00,
2013-01-02 18:40:00,54.5,-0.9,29.93,NNW,337,8.3,-999.0,10,-99.99,,,0.00,Acu-Link.com,2013-01-03 01:40:00,
2013-01-02 18:56:00,54.5,-3.1,29.93,North,0,6.7,-999.0,9,-99.99,,,0.00,Acu-Link.com,2013-01-03 01:56:00,
2013-01-02 19:11:00,53.6,-1.6,29.93,NNW,337,5.1,-999.0,10,-99.99,,,0.00,Acu-Link.com,2013-01-03 02:11:00,
2013-01-02 19:26:00,53.2,-1.9,29.93,NNW,337,7.4,-999.0,10,-99.99,,,0.00,Acu-Link.com,2013-01-03 02:26:00,
2013-01-02 19:41:00,54.1,-1.2,29.93,NNE,22,6.7,-999.0,10,-99.99,,,0.00,Acu-Link.com,2013-01-03 02:41:00,
2013-01-02 19:57:00,54.3,-1.1,29.93,NNW,337,8.3,-999.0,10,-99.99,,,0.00,Acu-Link.com,2013-01-03 02:57:00,
2013-01-02 20:12:00,53.8,-1.5,29.93,NNE,22,7.8,-999.0,10,-99.99,,,0.00,Acu-Link.com,2013-01-03 03:12:00,
2013-01-02 20:27:00,52.5,-0.4,29.94,NNW,337,6.7,-999.0,11,-99.99,,,0.00,Acu-Link.com,2013-01-03 03:27:00,
2013-01-02 20:58:00,50.5,3.1,29.94,NNW,337,5.8,-999.0,14,-99.99,,,0.00,Acu-Link.com,2013-01-03 03:58:00,
2013-01-02 21:13:00,50.0,5.6,29.94,NNW,337,7.8,-999.0,16,-99.99,,,0.00,Acu-Link.com,2013-01-03 04:13:00,
2013-01-02 21:28:00,50.2,5.8,29.95,NNW,337,6.7,-999.0,16,-99.99,,,0.00,Acu-Link.com,2013-01-03 04:28:00,
2013-01-02 21:43:00,51.1,6.5,29.94,NW,315,11.0,-999.0,16,-99.99,,,0.00,Acu-Link.com,2013-01-03 04:43:00,
2013-01-02 21:58:00,51.8,5.7,29.94,NNW,337,8.9,-999.0,15,-99.99,,,0.00,Acu-Link.com,2013-01-03 04:58:00,
2013-01-02 22:14:00,50.5,6.0,29.95,NNW,337,8.9,-999.0,16,-99.99,,,0.00,Acu-Link.com,2013-01-03 05:14:00,
2013-01-02 22:29:00,50.9,6.3,29.95,NW,315,11.9,-999.0,16,-99.99,,,0.00,Acu-Link.com,2013-01-03 05:29:00,
2013-01-02 22:44:00,52.5,7.7,29.96,NW,315,11.4,-999.0,16,-99.99,,,0.00,Acu-Link.com,2013-01-03 05:44:00,
2013-01-02 23:00:00,50.5,6.0,29.95,NW,315,11.4,-999.0,16,-99.99,,,0.00,Acu-Link.com,2013-01-03 06:00:00,
2013-01-02 23:15:00,50.5,6.0,29.94,NNW,337,11.4,-999.0,16,-99.99,,,0.00,Acu-Link.com,2013-01-03 06:15:00,
2013-01-02 23:30:00,50.7,4.8,29.95,NW,315,14.1,-999.0,15,-99.99,,,0.00,Acu-Link.com,2013-01-03 06:30:00,
2013-01-02 23:45:00,50.7,4.8,29.95,NNW,337,12.5,-999.0,15,-99.99,,,0.00,Acu-Link.com,2013-01-03 06:45:00,